Time;durP1;ratioP1;P1;durP2;ratioP2;P2;SDS_P1;SDS_P2;PMS_P1;PMS_P2;Temp;Humidity;BMP_temperature;BMP_pressure;BME280_temperature;BME280_humidity;BME280_pressure;Samples;Min_cycle;Max_cycle;Signal;HPM_P1;HPM_P2
2023/04/20 05:01:43;;;;;;;;;14.33;8.67;;;;;;;;5338907;23;46545;-56
2023/04/20 05:04:08;;;;;;;;;7.00;7.00;;;;;;;;4997056;28;45318;-55
2023/04/20 05:06:33;;;;;;;;;7.00;7.00;;;;;;;;4999306;28;45143;-57
2023/04/20 05:08:59;;;;;;;;;7.67;7.67;;;;;;;;5000473;28;46274;-55
2023/04/20 05:11:24;;;;;;;;;10.67;8.00;;;;;;;;4984214;28;45268;-56
2023/04/20 05:13:51;;;;;;;;;8.00;8.00;;;;;;;;5000296;28;45420;-54
2023/04/20 05:16:17;;;;;;;;;12.67;10.67;;;;;;;;5000625;28;45449;-56
2023/04/20 05:18:42;;;;;;;;;7.00;7.00;;;;;;;;4999891;28;46170;-58
2023/04/20 05:21:07;;;;;;;;;8.00;6.00;;;;;;;;5000511;28;45268;-57
2023/04/20 05:23:32;;;;;;;;;9.33;8.00;;;;;;;;5003236;28;45310;-56
2023/04/20 05:25:58;;;;;;;;;11.67;8.00;;;;;;;;5000095;28;45269;-56
2023/04/20 05:28:23;;;;;;;;;10.00;10.00;;;;;;;;4999449;28;45314;-56
2023/04/20 05:30:48;;;;;;;;;9.33;7.00;;;;;;;;5000110;28;45498;-57
2023/04/20 05:33:13;;;;;;;;;11.33;9.33;;;;;;;;4999115;28;46975;-55
2023/04/20 05:35:39;;;;;;;;;13.00;12.00;;;;;;;;4999326;28;45266;-55
2023/04/20 05:38:05;;;;;;;;;13.00;11.67;;;;;;;;4997627;28;46059;-56
2023/04/20 05:40:30;;;;;;;;;8.67;7.33;;;;;;;;4999654;28;45381;-55
2023/04/20 05:42:55;;;;;;;;;11.00;11.00;;;;;;;;4982353;28;45307;-56
2023/04/20 05:45:21;;;;;;;;;10.33;8.33;;;;;;;;4997813;28;45698;-53
2023/04/20 05:47:53;;;;;;;;;9.33;8.00;;;;;;;;4999755;28;45818;-57
2023/04/20 05:50:18;;;;;;;;;15.00;13.33;;;;;;;;4997040;28;45433;-54
2023/04/20 05:52:43;;;;;;;;;11.00;8.33;;;;;;;;4999879;28;45328;-53
2023/04/20 05:55:08;;;;;;;;;15.00;9.00;;;;;;;;4998683;28;45421;-54
2023/04/20 05:57:35;;;;;;;;;12.33;11.00;;;;;;;;4999830;28;46058;-54
2023/04/20 06:00:02;;;;;;;;;14.00;12.00;;;;;;;;4999671;28;45452;-52
2023/04/20 06:02:27;;;;;;;;;13.00;11.00;;;;;;;;4999547;28;46514;-55
2023/04/20 06:04:53;;;;;;;;;13.33;11.67;;;;;;;;4999263;28;45257;-54
2023/04/20 06:07:18;;;;;;;;;12.33;12.00;;;;;;;;4998967;28;45475;-54
2023/04/20 06:09:43;;;;;;;;;16.00;12.33;;;;;;;;4999820;28;45289;-55
2023/04/20 06:12:08;;;;;;;;;14.00;9.33;;;;;;;;4999261;28;45211;-55
2023/04/20 06:14:33;;;;;;;;;13.67;9.67;;;;;;;;4982248;28;45361;-56
2023/04/20 06:16:59;;;;;;;;;12.67;9.00;;;;;;;;4999534;28;45404;-52
2023/04/20 06:19:24;;;;;;;;;12.67;11.33;;;;;;;;4998917;28;45458;-51
2023/04/20 06:21:49;;;;;;;;;13.33;8.67;;;;;;;;4998778;28;45401;-52
2023/04/20 06:24:15;;;;;;;;;12.67;12.33;;;;;;;;4997798;28;45297;-51
2023/04/20 06:26:40;;;;;;;;;14.33;10.33;;;;;;;;4998363;28;46522;-48
2023/04/20 06:29:05;;;;;;;;;7.67;7.67;;;;;;;;4998292;28;45347;-51
2023/04/20 06:31:30;;;;;;;;;13.33;9.67;;;;;;;;4998438;28;45771;-50
2023/04/20 06:33:56;;;;;;;;;9.67;9.67;;;;;;;;4998343;28;45612;-49
2023/04/20 06:36:21;;;;;;;;;12.33;11.67;;;;;;;;4998640;28;45327;-52
2023/04/20 06:38:46;;;;;;;;;12.33;10.00;;;;;;;;4999317;28;45647;-50
2023/04/20 06:41:11;;;;;;;;;14.00;11.00;;;;;;;;4998732;28;45346;-51
2023/04/20 06:43:36;;;;;;;;;7.67;7.33;;;;;;;;4999300;28;46448;-50
2023/04/20 06:46:01;;;;;;;;;11.33;9.33;;;;;;;;4998459;28;46278;-49
2023/04/20 06:48:27;;;;;;;;;11.67;10.67;;;;;;;;4998553;28;45379;-50
2023/04/20 06:50:52;;;;;;;;;14.00;10.33;;;;;;;;4998527;28;45326;-51
2023/04/20 06:53:17;;;;;;;;;10.33;9.33;;;;;;;;4998399;28;45356;-49
2023/04/20 06:55:42;;;;;;;;;11.67;8.00;;;;;;;;4998301;28;46313;-49
2023/04/20 06:58:07;;;;;;;;;12.00;10.33;;;;;;;;4989684;28;45240;-52
2023/04/20 07:00:33;;;;;;;;;10.67;7.00;;;;;;;;4996879;28;45468;-53
2023/04/20 07:02:58;;;;;;;;;10.00;8.33;;;;;;;;4994275;28;45808;-53
2023/04/20 07:05:23;;;;;;;;;11.00;11.00;;;;;;;;4998289;28;46006;-52
2023/04/20 07:07:49;;;;;;;;;12.67;11.33;;;;;;;;5000305;28;45540;-53
2023/04/20 07:10:15;;;;;;;;;12.67;9.33;;;;;;;;4999917;28;45619;-50
2023/04/20 07:12:41;;;;;;;;;10.33;10.33;;;;;;;;5001269;28;45570;-53
2023/04/20 07:15:06;;;;;;;;;11.67;11.67;;;;;;;;4998220;28;46209;-53
2023/04/20 07:17:32;;;;;;;;;12.67;11.67;;;;;;;;4996238;28;45370;-50
2023/04/20 07:20:04;;;;;;;;;11.67;10.67;;;;;;;;5001060;28;45712;-52
2023/04/20 07:22:30;;;;;;;;;10.67;10.33;;;;;;;;5001055;28;45577;-53
2023/04/20 07:24:55;;;;;;;;;11.00;9.00;;;;;;;;5001320;28;46226;-51
2023/04/20 07:27:20;;;;;;;;;9.33;5.67;;;;;;;;4996159;28;45369;-49
2023/04/20 07:29:46;;;;;;;;;10.33;10.33;;;;;;;;5001625;28;45419;-54
2023/04/20 07:32:11;;;;;;;;;9.33;9.33;;;;;;;;4996004;28;45369;-52
2023/04/20 07:34:36;;;;;;;;;12.00;10.33;;;;;;;;4996988;28;46125;-51
2023/04/20 07:37:01;;;;;;;;;13.33;11.33;;;;;;;;5000405;28;45314;-54
2023/04/20 07:39:29;;;;;;;;;11.33;11.33;;;;;;;;4999416;28;45408;-53
2023/04/20 07:41:54;;;;;;;;;11.67;10.67;;;;;;;;5000580;28;45557;-53
2023/04/20 07:44:19;;;;;;;;;11.00;11.00;;;;;;;;5000608;28;45311;-53
2023/04/20 07:46:44;;;;;;;;;13.67;13.67;;;;;;;;4993932;28;45200;-52
2023/04/20 07:49:09;;;;;;;;;10.67;10.33;;;;;;;;5000155;28;45507;-52
2023/04/20 07:51:35;;;;;;;;;13.67;12.00;;;;;;;;5000755;28;45849;-53
2023/04/20 07:54:00;;;;;;;;;12.33;12.33;;;;;;;;4999731;28;46242;-53
2023/04/20 07:56:25;;;;;;;;;11.33;11.00;;;;;;;;4999972;28;45849;-50
2023/04/20 07:58:50;;;;;;;;;15.33;12.33;;;;;;;;4999663;28;45682;-48
2023/04/20 08:01:16;;;;;;;;;14.00;12.00;;;;;;;;4981875;28;45654;-53
2023/04/20 08:03:41;;;;;;;;;15.00;12.67;;;;;;;;4998063;28;45989;-51
2023/04/20 08:06:06;;;;;;;;;11.33;10.00;;;;;;;;4999560;28;45446;-53
2023/04/20 08:08:31;;;;;;;;;11.00;10.33;;;;;;;;5000671;28;45373;-53
2023/04/20 08:10:57;;;;;;;;;12.00;10.33;;;;;;;;5000018;28;45626;-52
2023/04/20 08:13:22;;;;;;;;;11.33;11.33;;;;;;;;4998166;28;47004;-57
2023/04/20 08:15:47;;;;;;;;;10.00;10.00;;;;;;;;4980066;28;46153;-54
2023/04/20 08:18:13;;;;;;;;;14.00;10.67;;;;;;;;4993967;28;45356;-55
2023/04/20 08:20:38;;;;;;;;;16.33;11.33;;;;;;;;5000487;28;45488;-53
2023/04/20 08:23:03;;;;;;;;;12.67;11.67;;;;;;;;4997514;28;46229;-54
2023/04/20 08:25:28;;;;;;;;;14.33;12.67;;;;;;;;4999736;28;45432;-53
2023/04/20 08:27:53;;;;;;;;;13.33;11.67;;;;;;;;4982764;28;45378;-54
2023/04/20 08:30:19;;;;;;;;;13.33;13.33;;;;;;;;4999680;28;45372;-54
2023/04/20 08:32:44;;;;;;;;;12.33;11.00;;;;;;;;4998683;28;46348;-56
2023/04/20 08:35:09;;;;;;;;;12.67;12.67;;;;;;;;4994653;28;46693;-56
2023/04/20 08:37:36;;;;;;;;;13.00;13.00;;;;;;;;4999455;28;45455;-55
2023/04/20 08:40:02;;;;;;;;;14.00;13.00;;;;;;;;4999820;28;45419;-54
2023/04/20 08:42:27;;;;;;;;;13.67;12.33;;;;;;;;4999737;28;46256;-56
2023/04/20 08:44:52;;;;;;;;;14.33;14.33;;;;;;;;4997463;28;45660;-55
2023/04/20 08:47:18;;;;;;;;;17.00;13.33;;;;;;;;4998265;28;45246;-55
2023/04/20 08:49:43;;;;;;;;;12.67;11.33;;;;;;;;4997839;28;45282;-53
2023/04/20 08:52:10;;;;;;;;;16.00;14.33;;;;;;;;4996534;28;46200;-53
2023/04/20 08:54:36;;;;;;;;;11.33;11.33;;;;;;;;4981875;28;45500;-55
2023/04/20 08:57:02;;;;;;;;;17.00;15.00;;;;;;;;4998486;28;45460;-55
2023/04/20 08:59:27;;;;;;;;;10.67;10.00;;;;;;;;5000276;28;45503;-55
2023/04/20 09:01:52;;;;;;;;;13.00;12.00;;;;;;;;4998150;28;45958;-54
2023/04/20 09:04:18;;;;;;;;;12.67;11.00;;;;;;;;4998534;28;45369;-52
2023/04/20 09:06:44;;;;;;;;;14.67;14.67;;;;;;;;4999806;28;45436;-55
2023/04/20 09:09:10;;;;;;;;;14.33;13.67;;;;;;;;4999092;28;45557;-52
2023/04/20 09:11:35;;;;;;;;;11.33;10.00;;;;;;;;4981835;28;47288;-54
2023/04/20 09:14:11;;;;;;;;;13.00;13.00;;;;;;;;4999315;28;45372;-56
2023/04/20 09:16:38;;;;;;;;;10.33;9.33;;;;;;;;4982345;28;45618;-56
2023/04/20 09:19:03;;;;;;;;;13.67;10.33;;;;;;;;4980766;28;45657;-56
2023/04/20 09:21:30;;;;;;;;;15.00;10.67;;;;;;;;4999695;28;47096;-54
2023/04/20 09:24:07;;;;;;;;;10.33;10.33;;;;;;;;4999535;28;45420;-53
2023/04/20 09:26:33;;;;;;;;;11.33;10.33;;;;;;;;4999283;28;45470;-52
2023/04/20 09:28:58;;;;;;;;;13.33;11.00;;;;;;;;4999008;28;45573;-55
2023/04/20 09:31:24;;;;;;;;;10.67;9.00;;;;;;;;4998957;28;45671;-55
2023/04/20 09:33:59;;;;;;;;;6.33;6.00;;;;;;;;4981774;28;45422;-52
2023/04/20 09:36:34;;;;;;;;;13.67;9.33;;;;;;;;4998573;28;45333;-53
2023/04/20 09:39:04;;;;;;;;;10.67;9.33;;;;;;;;4999053;28;45808;-52
2023/04/20 09:41:29;;;;;;;;;9.00;8.00;;;;;;;;4981113;28;46135;-53
2023/04/20 09:43:55;;;;;;;;;8.00;8.00;;;;;;;;4997724;28;45293;-53
2023/04/20 09:46:21;;;;;;;;;4.33;4.00;;;;;;;;4997558;28;45432;-55
2023/04/20 09:48:46;;;;;;;;;10.33;7.67;;;;;;;;4986939;28;45215;-57
2023/04/20 09:51:11;;;;;;;;;12.00;10.67;;;;;;;;4992176;28;46192;-55
2023/04/20 09:53:37;;;;;;;;;10.67;10.00;;;;;;;;4999023;28;45412;-55
2023/04/20 09:56:04;;;;;;;;;9.67;9.33;;;;;;;;4997127;28;45405;-55
2023/04/20 09:58:31;;;;;;;;;9.33;9.33;;;;;;;;4997828;28;45336;-54
2023/04/20 10:00:56;;;;;;;;;12.67;9.67;;;;;;;;4998394;28;45431;-53
2023/04/20 10:03:21;;;;;;;;;9.00;9.00;;;;;;;;4998695;28;45299;-55
2023/04/20 10:05:46;;;;;;;;;12.00;12.00;;;;;;;;4999319;28;45500;-55
2023/04/20 10:08:12;;;;;;;;;9.67;9.67;;;;;;;;4997949;28;45230;-55
2023/04/20 10:10:44;;;;;;;;;12.67;11.00;;;;;;;;4998371;28;45314;-54
2023/04/20 10:13:09;;;;;;;;;11.33;8.67;;;;;;;;4980579;28;45334;-55
2023/04/20 10:15:35;;;;;;;;;10.33;10.00;;;;;;;;4998450;28;45295;-53
2023/04/20 10:18:01;;;;;;;;;10.67;9.00;;;;;;;;4998433;28;45971;-55
2023/04/20 10:20:26;;;;;;;;;10.33;10.33;;;;;;;;4998493;28;46820;-54
2023/04/20 10:22:53;;;;;;;;;9.00;9.00;;;;;;;;4993521;28;45318;-53
2023/04/20 10:25:20;;;;;;;;;8.33;7.67;;;;;;;;4997336;28;45350;-50
2023/04/20 10:28:11;;;;;;;;;8.67;8.67;;;;;;;;4994558;28;45533;-52
2023/04/20 10:30:48;;;;;;;;;12.67;10.00;;;;;;;;4994705;28;45289;-50
2023/04/20 10:33:13;;;;;;;;;14.67;10.00;;;;;;;;4997100;28;45241;-54
2023/04/20 10:35:43;;;;;;;;;10.00;9.33;;;;;;;;4999021;28;45563;-54
2023/04/20 10:38:10;;;;;;;;;12.33;10.00;;;;;;;;5004204;28;45883;-54
2023/04/20 10:40:35;;;;;;;;;14.00;11.00;;;;;;;;5004227;28;46300;-55
2023/04/20 10:43:00;;;;;;;;;10.00;10.00;;;;;;;;5005052;28;45349;-53
2023/04/20 10:45:35;;;;;;;;;12.00;10.00;;;;;;;;4999862;28;45318;-55
2023/04/20 10:48:10;;;;;;;;;16.67;12.00;;;;;;;;4997136;28;45507;-59
2023/04/20 10:50:38;;;;;;;;;11.33;9.00;;;;;;;;4998608;28;46271;-60
2023/04/20 10:53:04;;;;;;;;;9.67;9.00;;;;;;;;4999600;28;45444;-48
2023/04/20 10:55:29;;;;;;;;;12.00;12.00;;;;;;;;5003536;28;45345;-60
2023/04/20 10:57:54;;;;;;;;;14.00;14.00;;;;;;;;5000594;28;45494;-60
2023/04/20 11:00:21;;;;;;;;;13.00;12.00;;;;;;;;4983917;28;45871;-59
2023/04/20 11:02:47;;;;;;;;;11.00;11.00;;;;;;;;4999114;28;45629;-60
2023/04/20 11:05:12;;;;;;;;;15.00;14.33;;;;;;;;4998140;28;45435;-60
2023/04/20 11:07:45;;;;;;;;;12.67;12.67;;;;;;;;5004429;28;45273;-54
2023/04/20 11:10:11;;;;;;;;;14.33;12.67;;;;;;;;5003439;28;46366;-60
2023/04/20 11:12:39;;;;;;;;;13.33;13.00;;;;;;;;5003981;28;45322;-57
2023/04/20 11:15:05;;;;;;;;;16.33;13.33;;;;;;;;5004039;28;45302;-60
2023/04/20 11:17:33;;;;;;;;;13.67;12.33;;;;;;;;5011291;28;45554;-60
2023/04/20 11:20:08;;;;;;;;;15.67;15.67;;;;;;;;5003431;28;45329;-58
2023/04/20 11:22:33;;;;;;;;;13.33;13.33;;;;;;;;5001551;28;45440;-54
2023/04/20 11:25:05;;;;;;;;;15.67;12.00;;;;;;;;5004424;28;45503;-61
2023/04/20 11:27:30;;;;;;;;;15.00;14.00;;;;;;;;5004298;28;45340;-54
2023/04/20 11:29:57;;;;;;;;;13.67;13.00;;;;;;;;5001369;28;45514;-60
2023/04/20 11:32:22;;;;;;;;;12.33;12.33;;;;;;;;5001257;28;45326;-60
2023/04/20 11:34:56;;;;;;;;;13.00;13.00;;;;;;;;5004124;28;45403;-59
2023/04/20 11:37:21;;;;;;;;;21.33;15.33;;;;;;;;4992338;28;45450;-60
2023/04/20 11:39:47;;;;;;;;;17.00;14.33;;;;;;;;4999912;28;45492;-58
2023/04/20 11:42:12;;;;;;;;;16.67;14.67;;;;;;;;5003544;28;45327;-57
2023/04/20 11:44:40;;;;;;;;;14.67;12.33;;;;;;;;5004030;28;45585;-59
2023/04/20 11:47:05;;;;;;;;;17.67;14.00;;;;;;;;5002126;28;46339;-57
2023/04/20 11:49:30;;;;;;;;;15.67;15.00;;;;;;;;4999983;28;47644;-56
2023/04/20 11:51:55;;;;;;;;;11.00;11.00;;;;;;;;4978974;28;45852;-58
2023/04/20 11:54:21;;;;;;;;;11.00;11.00;;;;;;;;4993111;28;45280;-58
2023/04/20 11:56:46;;;;;;;;;14.33;13.67;;;;;;;;5000486;28;45544;-58
2023/04/20 11:59:13;;;;;;;;;12.33;12.00;;;;;;;;4986164;28;46133;-57
2023/04/20 12:01:39;;;;;;;;;11.67;11.67;;;;;;;;4999061;28;45305;-56
2023/04/20 12:04:04;;;;;;;;;10.00;10.00;;;;;;;;4995640;28;45479;-57
2023/04/20 12:06:33;;;;;;;;;12.33;10.67;;;;;;;;4999069;28;45296;-56
2023/04/20 12:09:00;;;;;;;;;11.33;10.67;;;;;;;;4993886;28;47062;-55
2023/04/20 12:11:25;;;;;;;;;14.00;12.00;;;;;;;;4987056;28;45410;-56
2023/04/20 12:13:50;;;;;;;;;14.67;13.00;;;;;;;;4999747;28;45324;-57
2023/04/20 12:16:16;;;;;;;;;17.00;15.00;;;;;;;;4993735;28;45392;-57
2023/04/20 12:18:41;;;;;;;;;12.67;12.67;;;;;;;;5000118;28;45365;-56
2023/04/20 12:21:06;;;;;;;;;13.00;11.67;;;;;;;;4999890;28;45303;-56
2023/04/20 12:23:32;;;;;;;;;16.00;14.33;;;;;;;;5000091;28;45227;-57
2023/04/20 12:25:57;;;;;;;;;10.00;10.00;;;;;;;;5000789;28;45368;-56
2023/04/20 12:28:22;;;;;;;;;13.67;13.67;;;;;;;;4999724;28;45425;-56
2023/04/20 12:30:48;;;;;;;;;15.67;15.33;;;;;;;;4999739;28;45382;-56
2023/04/20 12:33:13;;;;;;;;;11.33;11.33;;;;;;;;4999293;28;45494;-56
2023/04/20 12:35:38;;;;;;;;;15.33;13.33;;;;;;;;4990004;28;45551;-56
2023/04/20 12:38:03;;;;;;;;;11.67;10.33;;;;;;;;4999614;28;45438;-56
2023/04/20 12:40:28;;;;;;;;;15.67;15.00;;;;;;;;4998453;28;45564;-57
2023/04/20 12:42:54;;;;;;;;;15.67;15.00;;;;;;;;4999554;28;45341;-57
2023/04/20 12:45:19;;;;;;;;;14.00;13.00;;;;;;;;4999160;28;45277;-56
2023/04/20 12:47:44;;;;;;;;;14.33;13.00;;;;;;;;4999910;28;46160;-55
2023/04/20 12:50:10;;;;;;;;;18.33;16.67;;;;;;;;4999135;28;45324;-57
2023/04/20 12:52:35;;;;;;;;;18.33;17.67;;;;;;;;4998698;28;45273;-58
2023/04/20 12:55:00;;;;;;;;;19.00;17.00;;;;;;;;4996231;28;45381;-56
2023/04/20 12:57:25;;;;;;;;;20.67;18.67;;;;;;;;4999267;28;45951;-57
2023/04/20 12:59:51;;;;;;;;;15.33;12.67;;;;;;;;4997014;28;45319;-57
2023/04/20 13:02:16;;;;;;;;;20.33;20.00;;;;;;;;4997647;28;45542;-58
2023/04/20 13:04:41;;;;;;;;;18.00;18.00;;;;;;;;4999236;28;45976;-56
2023/04/20 13:07:07;;;;;;;;;18.67;16.67;;;;;;;;4995542;28;45439;-56
2023/04/20 13:09:32;;;;;;;;;17.00;15.67;;;;;;;;4998290;28;45406;-56
2023/04/20 13:11:57;;;;;;;;;13.00;10.67;;;;;;;;4996439;28;45702;-57
2023/04/20 13:14:23;;;;;;;;;15.67;15.00;;;;;;;;4996912;28;45582;-57
2023/04/20 13:16:48;;;;;;;;;14.00;14.00;;;;;;;;4999604;28;46032;-55
2023/04/20 13:19:13;;;;;;;;;16.67;16.67;;;;;;;;4995530;28;45570;-55
2023/04/20 13:21:38;;;;;;;;;16.00;15.33;;;;;;;;5000086;28;45357;-57
2023/04/20 13:24:03;;;;;;;;;17.33;17.00;;;;;;;;4994865;28;45584;-56
2023/04/20 13:26:29;;;;;;;;;18.00;18.00;;;;;;;;4999287;28;46520;-57
2023/04/20 13:28:56;;;;;;;;;15.00;14.67;;;;;;;;4989996;28;45273;-55
2023/04/20 13:31:21;;;;;;;;;15.67;14.00;;;;;;;;4998742;28;45295;-56
2023/04/20 13:33:46;;;;;;;;;17.67;15.67;;;;;;;;4998377;28;45392;-56
2023/04/20 13:36:12;;;;;;;;;19.00;17.67;;;;;;;;4998254;28;45869;-56
2023/04/20 13:38:37;;;;;;;;;18.00;15.00;;;;;;;;4998390;28;45904;-55
2023/04/20 13:41:02;;;;;;;;;17.67;16.00;;;;;;;;4996915;28;45402;-56
2023/04/20 13:43:27;;;;;;;;;20.00;17.67;;;;;;;;4994502;28;45544;-55
2023/04/20 13:45:52;;;;;;;;;13.00;13.00;;;;;;;;4981751;28;47984;-57
2023/04/20 13:48:18;;;;;;;;;15.33;15.00;;;;;;;;4998093;28;45452;-56
2023/04/20 13:50:43;;;;;;;;;19.33;18.33;;;;;;;;4996947;28;45663;-55
2023/04/20 13:53:08;;;;;;;;;17.00;17.00;;;;;;;;4998709;28;45527;-56
2023/04/20 13:55:33;;;;;;;;;17.33;15.67;;;;;;;;5000616;28;47153;-56
2023/04/20 13:57:58;;;;;;;;;15.33;15.33;;;;;;;;5002188;28;45481;-55
2023/04/20 14:00:24;;;;;;;;;16.33;16.33;;;;;;;;4998496;28;45271;-55
2023/04/20 14:02:50;;;;;;;;;16.33;14.67;;;;;;;;4996442;28;45330;-56
2023/04/20 14:05:15;;;;;;;;;17.67;17.00;;;;;;;;4996608;28;46387;-55
2023/04/20 14:07:40;;;;;;;;;20.67;17.67;;;;;;;;4998492;28;45337;-57
2023/04/20 14:10:06;;;;;;;;;16.33;16.00;;;;;;;;4998610;28;45531;-56
2023/04/20 14:12:32;;;;;;;;;19.67;18.33;;;;;;;;4997483;28;45358;-55
2023/04/20 14:14:58;;;;;;;;;18.67;18.67;;;;;;;;4998834;28;47018;-55
2023/04/20 14:17:23;;;;;;;;;16.67;16.00;;;;;;;;4997103;28;45234;-56
2023/04/20 14:19:48;;;;;;;;;20.67;20.67;;;;;;;;4999044;28;45369;-55
2023/04/20 14:22:14;;;;;;;;;18.33;17.00;;;;;;;;4998173;28;45511;-56
2023/04/20 14:24:39;;;;;;;;;19.00;16.67;;;;;;;;4980788;28;47829;-56
2023/04/20 14:27:05;;;;;;;;;20.67;16.33;;;;;;;;4997448;28;45500;-56
2023/04/20 14:29:30;;;;;;;;;18.67;16.67;;;;;;;;4997274;28;45791;-56
2023/04/20 14:31:55;;;;;;;;;18.67;16.67;;;;;;;;4995565;28;45443;-56
2023/04/20 14:34:20;;;;;;;;;17.67;17.67;;;;;;;;4997870;28;46232;-56
2023/04/20 14:36:45;;;;;;;;;19.00;16.00;;;;;;;;4980461;28;45388;-54
2023/04/20 14:39:10;;;;;;;;;19.67;17.00;;;;;;;;4998117;28;45521;-55
2023/04/20 14:41:36;;;;;;;;;14.33;14.00;;;;;;;;4989317;28;45227;-56
2023/04/20 14:44:01;;;;;;;;;16.00;15.00;;;;;;;;4981078;28;46958;-57
2023/04/20 14:46:26;;;;;;;;;15.67;14.00;;;;;;;;4976904;28;45665;-56
2023/04/20 14:48:51;;;;;;;;;13.67;13.67;;;;;;;;4997988;28;45330;-56
2023/04/20 14:51:18;;;;;;;;;12.67;12.67;;;;;;;;4997675;28;45495;-55
2023/04/20 14:53:44;;;;;;;;;13.67;13.67;;;;;;;;4997698;28;46336;-55
2023/04/20 14:56:09;;;;;;;;;13.33;13.33;;;;;;;;4997732;28;45265;-55
2023/04/20 14:58:34;;;;;;;;;15.00;14.00;;;;;;;;4997973;28;45571;-55
2023/04/20 15:01:00;;;;;;;;;15.67;15.33;;;;;;;;4997792;28;45868;-55
2023/04/20 15:03:25;;;;;;;;;16.00;14.67;;;;;;;;4978360;28;47475;-55
2023/04/20 15:05:50;;;;;;;;;10.67;10.67;;;;;;;;4998082;28;45254;-55
2023/04/20 15:08:16;;;;;;;;;17.33;15.33;;;;;;;;4995926;28;45405;-55
2023/04/20 15:10:41;;;;;;;;;17.00;15.67;;;;;;;;4997831;28;45516;-56
2023/04/20 15:13:06;;;;;;;;;19.33;15.00;;;;;;;;4996867;28;45479;-56
2023/04/20 15:15:32;;;;;;;;;13.33;12.67;;;;;;;;4995190;28;45631;-56
2023/04/20 15:17:57;;;;;;;;;11.33;9.67;;;;;;;;4984673;28;45441;-55
2023/04/20 15:20:22;;;;;;;;;16.67;16.33;;;;;;;;4993704;28;45354;-56
2023/04/20 15:22:47;;;;;;;;;17.67;16.00;;;;;;;;4980928;28;47104;-55
2023/04/20 15:25:13;;;;;;;;;19.67;15.67;;;;;;;;5000484;28;45505;-56
2023/04/20 15:27:38;;;;;;;;;11.67;11.67;;;;;;;;5000685;28;45393;-56
2023/04/20 15:30:04;;;;;;;;;18.00;18.00;;;;;;;;4991633;28;45405;-56
2023/04/20 15:32:29;;;;;;;;;18.00;16.67;;;;;;;;4994020;28;46261;-55
2023/04/20 15:34:55;;;;;;;;;16.00;14.33;;;;;;;;4999492;28;45444;-56
2023/04/20 15:37:20;;;;;;;;;17.67;16.33;;;;;;;;4999156;28;45385;-56
2023/04/20 15:39:45;;;;;;;;;15.67;15.67;;;;;;;;4999871;28;45270;-55
2023/04/20 15:42:10;;;;;;;;;20.67;19.67;;;;;;;;4995369;28;45626;-56
2023/04/20 15:44:36;;;;;;;;;21.00;19.33;;;;;;;;5000174;28;45465;-56
2023/04/20 15:47:01;;;;;;;;;19.00;18.33;;;;;;;;5000227;28;47297;-56
2023/04/20 15:49:26;;;;;;;;;19.00;17.67;;;;;;;;5001779;28;45344;-56
2023/04/20 15:51:51;;;;;;;;;16.33;15.33;;;;;;;;4996925;28;45970;-57
2023/04/20 15:54:22;;;;;;;;;20.67;17.33;;;;;;;;4979342;28;45499;-53
2023/04/20 15:56:47;;;;;;;;;18.67;16.33;;;;;;;;4997939;28;45456;-56
2023/04/20 15:59:12;;;;;;;;;21.00;19.67;;;;;;;;4999731;28;45277;-56
2023/04/20 16:01:38;;;;;;;;;14.67;13.33;;;;;;;;5001597;28;45969;-54
2023/04/20 16:04:03;;;;;;;;;15.67;14.67;;;;;;;;4995590;28;45476;-54
2023/04/20 16:06:28;;;;;;;;;19.33;17.67;;;;;;;;4974689;28;45373;-55
2023/04/20 16:08:53;;;;;;;;;15.67;15.67;;;;;;;;4972587;28;45700;-56
2023/04/20 16:11:20;;;;;;;;;18.33;16.33;;;;;;;;4998563;28;45508;-54
2023/04/20 16:13:45;;;;;;;;;21.67;20.33;;;;;;;;4999050;28;45392;-54
2023/04/20 16:16:10;;;;;;;;;22.67;19.67;;;;;;;;4999034;28;45403;-55
2023/04/20 16:18:36;;;;;;;;;22.00;18.67;;;;;;;;4999955;28;45379;-53
2023/04/20 16:21:01;;;;;;;;;20.00;20.00;;;;;;;;4994705;28;45585;-55
2023/04/20 16:23:27;;;;;;;;;18.67;18.67;;;;;;;;4996477;28;45353;-55
2023/04/20 16:25:52;;;;;;;;;19.67;17.00;;;;;;;;5000152;28;45331;-55
2023/04/20 16:28:17;;;;;;;;;20.00;15.00;;;;;;;;5003869;28;45384;-54
2023/04/20 16:30:43;;;;;;;;;19.33;18.00;;;;;;;;5000092;28;45639;-55
2023/04/20 16:33:08;;;;;;;;;15.33;15.33;;;;;;;;4994890;28;45651;-55
2023/04/20 16:35:34;;;;;;;;;21.33;21.00;;;;;;;;4992816;28;45551;-55
2023/04/20 16:37:59;;;;;;;;;22.33;22.33;;;;;;;;4991182;28;45724;-55
2023/04/20 16:40:25;;;;;;;;;17.33;17.00;;;;;;;;4993880;28;46021;-55
2023/04/20 16:42:50;;;;;;;;;18.33;15.67;;;;;;;;5000102;28;45568;-56
2023/04/20 16:45:15;;;;;;;;;18.33;17.00;;;;;;;;4995925;28;45751;-55
2023/04/20 16:47:40;;;;;;;;;20.67;19.67;;;;;;;;5001574;28;45384;-57
2023/04/20 16:50:06;;;;;;;;;20.33;16.33;;;;;;;;4998949;28;46268;-56
2023/04/20 16:52:35;;;;;;;;;20.33;19.00;;;;;;;;4998797;28;45449;-55
2023/04/20 16:55:00;;;;;;;;;19.67;17.67;;;;;;;;4999266;28;45426;-56
2023/04/20 16:57:25;;;;;;;;;17.33;15.33;;;;;;;;5002038;28;45499;-55
2023/04/20 16:59:51;;;;;;;;;16.67;16.00;;;;;;;;4999299;28;46248;-56
2023/04/20 17:02:16;;;;;;;;;18.67;17.33;;;;;;;;4997753;28;45365;-55
2023/04/20 17:04:41;;;;;;;;;19.00;19.00;;;;;;;;4999217;28;45447;-54
2023/04/20 17:07:06;;;;;;;;;20.33;20.00;;;;;;;;4998745;28;45476;-56
2023/04/20 17:09:31;;;;;;;;;18.00;18.00;;;;;;;;4987319;28;46060;-56
2023/04/20 17:11:58;;;;;;;;;13.67;11.67;;;;;;;;4991426;28;45349;-55
2023/04/20 17:14:23;;;;;;;;;19.00;18.67;;;;;;;;4994319;28;45864;-56
2023/04/20 17:16:49;;;;;;;;;18.33;18.00;;;;;;;;4995542;28;45507;-55
2023/04/20 17:19:14;;;;;;;;;22.00;20.33;;;;;;;;4993408;28;46339;-55
2023/04/20 17:21:40;;;;;;;;;19.00;19.00;;;;;;;;4970180;28;45802;-56
2023/04/20 17:24:05;;;;;;;;;17.33;17.33;;;;;;;;4975881;28;45460;-55
2023/04/20 17:26:30;;;;;;;;;20.00;18.00;;;;;;;;4995519;28;45578;-54
2023/04/20 17:28:55;;;;;;;;;17.33;17.33;;;;;;;;4984004;28;46893;-55
2023/04/20 17:31:21;;;;;;;;;20.33;17.33;;;;;;;;4990845;28;45468;-55
2023/04/20 17:33:46;;;;;;;;;20.67;20.00;;;;;;;;4990096;28;45414;-53
2023/04/20 17:36:11;;;;;;;;;21.67;20.00;;;;;;;;4986788;28;45556;-54
2023/04/20 17:38:37;;;;;;;;;21.33;19.67;;;;;;;;4995254;28;48359;-50
2023/04/20 17:41:03;;;;;;;;;21.00;20.00;;;;;;;;4997793;28;45349;-51
2023/04/20 17:43:28;;;;;;;;;20.33;20.33;;;;;;;;4997098;28;45539;-49
2023/04/20 17:45:54;;;;;;;;;17.00;14.33;;;;;;;;4999387;28;45282;-49
2023/04/20 17:48:19;;;;;;;;;25.00;21.67;;;;;;;;4998185;28;47261;-52
2023/04/20 17:50:50;;;;;;;;;19.67;19.67;;;;;;;;4998440;28;45468;-49
2023/04/20 17:53:15;;;;;;;;;23.67;19.33;;;;;;;;4990411;28;45437;-52
2023/04/20 17:55:41;;;;;;;;;24.00;20.00;;;;;;;;4990484;28;45768;-50
2023/04/20 17:58:06;;;;;;;;;21.00;21.00;;;;;;;;4997883;28;46312;-52
2023/04/20 18:00:31;;;;;;;;;23.33;21.67;;;;;;;;4997343;28;46625;-53
2023/04/20 18:02:57;;;;;;;;;22.00;21.00;;;;;;;;4996782;28;45931;-53
2023/04/20 18:05:22;;;;;;;;;25.00;23.00;;;;;;;;4997358;28;45578;-57
2023/04/20 18:07:47;;;;;;;;;23.67;20.67;;;;;;;;4997536;28;46222;-59
2023/04/20 18:10:14;;;;;;;;;27.00;23.33;;;;;;;;4997023;28;45458;-63
2023/04/20 18:12:39;;;;;;;;;27.33;23.33;;;;;;;;4995354;28;45370;-59
2023/04/20 18:15:05;;;;;;;;;24.00;23.67;;;;;;;;4996382;28;45612;-59
2023/04/20 18:17:30;;;;;;;;;27.67;21.33;;;;;;;;5001833;28;46210;-58
2023/04/20 18:19:55;;;;;;;;;24.00;22.67;;;;;;;;4967889;28;46531;-58
2023/04/20 18:22:20;;;;;;;;;22.33;21.33;;;;;;;;4995299;28;45522;-59
2023/04/20 18:24:46;;;;;;;;;28.00;24.33;;;;;;;;4992237;28;45575;-59
2023/04/20 18:27:11;;;;;;;;;33.00;26.33;;;;;;;;4992176;28;46002;-58
2023/04/20 18:29:36;;;;;;;;;29.67;27.00;;;;;;;;4991409;28;45740;-58
2023/04/20 18:32:01;;;;;;;;;28.33;25.00;;;;;;;;4992088;28;45518;-58
2023/04/20 18:34:29;;;;;;;;;23.67;23.67;;;;;;;;4997297;28;45614;-58
2023/04/20 18:36:55;;;;;;;;;33.00;27.67;;;;;;;;5001716;28;47209;-58
2023/04/20 18:39:20;;;;;;;;;28.67;27.00;;;;;;;;4992517;28;45682;-58
2023/04/20 18:41:46;;;;;;;;;27.00;25.67;;;;;;;;4991998;28;45979;-58
2023/04/20 18:44:11;;;;;;;;;28.33;26.33;;;;;;;;4998871;28;45587;-59
2023/04/20 18:46:36;;;;;;;;;30.33;29.00;;;;;;;;5000393;28;45542;-58
2023/04/20 18:49:02;;;;;;;;;22.33;20.33;;;;;;;;4982675;28;45795;-59
2023/04/20 18:51:27;;;;;;;;;20.67;18.33;;;;;;;;4984489;28;45508;-57
2023/04/20 18:53:52;;;;;;;;;20.33;20.00;;;;;;;;4999637;28;45451;-55
2023/04/20 18:56:17;;;;;;;;;21.67;20.67;;;;;;;;4999907;28;46178;-56
2023/04/20 18:58:43;;;;;;;;;24.67;22.00;;;;;;;;5000299;28;45431;-57
2023/04/20 19:01:08;;;;;;;;;18.33;17.67;;;;;;;;5003537;28;45463;-56
2023/04/20 19:03:33;;;;;;;;;25.67;23.67;;;;;;;;5002321;28;45286;-56
2023/04/20 19:05:58;;;;;;;;;22.67;22.00;;;;;;;;5001015;28;46195;-56
2023/04/20 19:08:23;;;;;;;;;27.67;24.67;;;;;;;;5007583;28;45618;-56
2023/04/20 19:10:49;;;;;;;;;25.33;21.67;;;;;;;;4999989;28;45632;-56
2023/04/20 19:13:17;;;;;;;;;24.00;23.00;;;;;;;;4995998;28;45374;-56